Melbourne Beach, Florida
Current Conditions -  °F | °C
As of 6:53 PM on Monday 20 Oct 2014 (Local Time) from KMLB Reporting Station
Few Clouds Few Clouds  
Wind Chill: 80°   Ceiling: Unl
Heat Index: 82°   Visibility: 10mi
Dew Point: 65°   Wind: 7mph
Humidity: 60%   Direction: 130°SE
Pressure: 29.95"   Gusts: NA
Location:  28.07°N, 80.56°W
Report Text: KMLB 202253Z 13006KT 10SM FEW035 27/18 A2995 RMK AO2 SLP142 T02670183
Loading
Personal Weather Stations






























Interactive Weather Map
Tropical Storm Tracking
New forecast layout! Learn more

10-Day Weather Forecast

Advertisements
Track Severe Weather on mobile